createdAt,value
2017-11-22T00:00:58.560Z,7.16
2017-11-22T00:03:27.678Z,7.18
2017-11-22T00:05:56.805Z,7.18
2017-11-22T00:08:25.989Z,7.19
2017-11-22T00:10:55.176Z,7.19
2017-11-22T00:13:25.417Z,7.26
2017-11-22T00:15:54.730Z,7.28
2017-11-22T00:18:24.167Z,7.29
2017-11-22T00:20:54.247Z,7.28
2017-11-22T00:23:23.699Z,7.34
2017-11-22T00:25:53.027Z,7.40
2017-11-22T00:28:23.380Z,7.47
2017-11-22T00:30:53.886Z,7.54
2017-11-22T00:33:25.335Z,7.63
2017-11-22T00:35:54.942Z,7.70
2017-11-22T00:38:25.071Z,7.77
2017-11-22T00:40:55.225Z,7.83
2017-11-22T00:43:25.531Z,7.90
2017-11-22T00:45:54.839Z,7.97
2017-11-22T00:48:24.197Z,8.01
2017-11-22T00:50:54.230Z,8.06
2017-11-22T00:53:23.458Z,8.10
2017-11-22T00:55:53.171Z,8.12
2017-11-22T00:58:22.375Z,8.16
2017-11-22T01:00:51.563Z,8.23
2017-11-22T01:03:20.837Z,8.27
2017-11-22T01:05:50.227Z,8.32
2017-11-22T01:08:19.512Z,8.40
2017-11-22T01:10:49.652Z,8.43
2017-11-22T01:13:19.897Z,8.50
2017-11-22T01:15:49.212Z,8.56
2017-11-22T01:18:18.891Z,8.64
2017-11-22T01:20:48.181Z,8.71
2017-11-22T01:23:18.922Z,8.78
2017-11-22T01:25:49.754Z,8.86
2017-11-22T01:28:19.956Z,8.95
2017-11-22T01:30:52.151Z,9.04
2017-11-22T01:33:21.556Z,9.11
2017-11-22T01:35:51.980Z,9.17
2017-11-22T01:38:21.275Z,9.25
2017-11-22T01:40:51.394Z,9.35
2017-11-22T01:43:20.877Z,9.41
2017-11-22T01:45:50.319Z,9.47
2017-11-22T01:48:20.529Z,9.52
2017-11-22T01:50:50.005Z,9.56
2017-11-22T01:53:19.377Z,9.63
2017-11-22T01:55:48.708Z,9.68
2017-11-22T01:58:17.930Z,9.72
2017-11-22T02:00:54.268Z,9.78
2017-11-22T02:03:23.397Z,9.82
2017-11-22T02:05:52.534Z,9.88
2017-11-22T02:08:22.180Z,9.96
2017-11-22T02:10:51.724Z,10.01
2017-11-22T02:13:21.170Z,10.08
2017-11-22T02:15:50.488Z,10.12
2017-11-22T02:18:19.778Z,10.17
2017-11-22T02:20:48.979Z,10.19
2017-11-22T02:23:18.633Z,10.24
2017-11-22T02:25:47.778Z,10.28
2017-11-22T02:28:17.667Z,10.32
2017-11-22T02:30:46.857Z,10.38
2017-11-22T02:33:16.085Z,10.40
2017-11-22T02:35:45.233Z,10.47
2017-11-22T02:38:16.129Z,10.50
2017-11-22T02:40:45.510Z,10.56
2017-11-22T02:43:14.721Z,10.59
2017-11-22T02:45:43.919Z,10.66
2017-11-22T02:48:13.860Z,10.70
2017-11-22T02:50:42.976Z,10.78
2017-11-22T02:53:12.152Z,10.84
2017-11-22T02:55:42.106Z,10.89
2017-11-22T02:58:11.351Z,10.94
2017-11-22T03:00:41.103Z,10.97
2017-11-22T03:03:10.216Z,10.99
2017-11-22T03:05:39.328Z,11.04
2017-11-22T03:08:08.774Z,11.05
2017-11-22T03:10:38.649Z,11.07
2017-11-22T03:13:07.808Z,11.12
2017-11-22T03:15:37.047Z,11.14
2017-11-22T03:18:06.191Z,11.16
2017-11-22T03:20:35.344Z,11.20
2017-11-22T03:23:04.509Z,11.18
2017-11-22T03:25:33.658Z,11.18
2017-11-22T03:28:02.779Z,11.18
2017-11-22T03:30:32.149Z,11.20
2017-11-22T03:33:01.267Z,11.24
2017-11-22T03:35:31.260Z,11.26
2017-11-22T03:38:01.515Z,11.23
2017-11-22T03:40:30.739Z,11.25
2017-11-22T03:43:00.093Z,11.24
2017-11-22T03:45:29.311Z,11.25
2017-11-22T03:51:01.257Z,11.24
2017-11-22T03:53:35.950Z,11.23
2017-11-22T03:56:05.421Z,11.18
2017-11-22T03:58:34.517Z,11.19
2017-11-22T04:01:03.622Z,11.21
2017-11-22T04:03:32.801Z,11.23
2017-11-22T04:06:01.901Z,11.24
2017-11-22T04:08:31.037Z,11.24
2017-11-22T04:11:00.213Z,11.23
2017-11-22T04:13:29.437Z,11.24
2017-11-22T04:15:58.562Z,11.22
2017-11-22T04:18:28.471Z,11.25
2017-11-22T04:20:58.371Z,11.24
2017-11-22T04:23:28.315Z,11.21
2017-11-22T04:25:58.840Z,11.20
2017-11-22T04:28:27.972Z,11.21
2017-11-22T04:30:57.145Z,11.22
2017-11-22T04:33:26.292Z,11.23
2017-11-22T04:35:55.471Z,11.23
2017-11-22T04:38:24.653Z,11.23
2017-11-22T04:40:54.510Z,11.22
2017-11-22T04:43:23.660Z,11.26
2017-11-22T04:45:52.952Z,11.21
2017-11-22T04:48:23.130Z,11.21
2017-11-22T04:50:52.357Z,11.21
2017-11-22T04:53:21.490Z,11.21
2017-11-22T04:55:50.680Z,11.21
2017-11-22T04:58:20.199Z,11.18
2017-11-22T05:00:49.381Z,11.18
2017-11-22T05:03:18.690Z,11.19
2017-11-22T05:05:47.874Z,11.22
2017-11-22T05:08:17.756Z,11.19
2017-11-22T05:10:47.408Z,11.18
2017-11-22T05:13:16.508Z,11.19
2017-11-22T05:15:46.604Z,11.18
2017-11-22T05:18:16.028Z,11.19
2017-11-22T05:20:45.133Z,11.22
2017-11-22T05:23:14.265Z,11.19
2017-11-22T05:25:44.070Z,11.18
2017-11-22T05:28:13.202Z,11.21
2017-11-22T05:30:42.291Z,11.22
2017-11-22T05:33:11.435Z,11.24
2017-11-22T05:35:41.325Z,11.24
2017-11-22T05:38:10.444Z,11.23
2017-11-22T05:40:40.780Z,11.22
2017-11-22T05:43:09.922Z,11.24
2017-11-22T05:45:39.824Z,11.26
2017-11-22T05:48:08.977Z,11.24
2017-11-22T05:50:38.123Z,11.27
2017-11-22T05:53:10.235Z,11.24
2017-11-22T05:55:40.195Z,11.25
2017-11-22T05:58:09.340Z,11.29
2017-11-22T06:00:44.394Z,11.33
2017-11-22T06:03:13.556Z,11.37
2017-11-22T06:05:43.606Z,11.41
2017-11-22T06:08:12.808Z,11.41
2017-11-22T06:10:41.983Z,11.44
2017-11-22T06:13:11.122Z,11.44
2017-11-22T06:15:40.499Z,11.48
2017-11-22T06:18:09.658Z,11.44
2017-11-22T06:20:39.808Z,11.49
2017-11-22T06:23:09.981Z,11.49
2017-11-22T06:25:39.202Z,11.50
2017-11-22T06:28:09.141Z,11.52
2017-11-22T06:30:46.763Z,11.54
2017-11-22T06:33:15.892Z,11.56
2017-11-22T06:35:45.085Z,11.57
2017-11-22T06:38:14.284Z,11.58
2017-11-22T06:40:43.466Z,11.61
2017-11-22T06:43:13.418Z,11.59
2017-11-22T06:45:43.726Z,11.60
2017-11-22T06:48:14.059Z,11.59
2017-11-22T06:50:43.362Z,11.61
2017-11-22T06:53:12.879Z,11.63
2017-11-22T06:55:42.045Z,11.65
2017-11-22T06:58:11.260Z,11.70
2017-11-22T07:00:41.491Z,11.69
2017-11-22T07:03:11.434Z,11.69
2017-11-22T07:05:40.581Z,11.69
2017-11-22T07:08:09.923Z,11.71
2017-11-22T07:10:39.073Z,11.71
2017-11-22T07:13:08.199Z,11.71
2017-11-22T07:15:37.398Z,11.74
2017-11-22T07:18:06.728Z,11.76
2017-11-22T07:20:36.793Z,11.75
2017-11-22T07:23:06.324Z,11.76
2017-11-22T07:25:36.317Z,11.77
2017-11-22T07:28:05.509Z,11.76
2017-11-22T07:30:35.078Z,11.78
2017-11-22T07:33:04.949Z,11.81
2017-11-22T07:35:39.972Z,11.81
2017-11-22T07:38:09.235Z,11.80
2017-11-22T07:40:40.288Z,11.81
2017-11-22T07:43:09.549Z,11.78
2017-11-22T07:45:38.788Z,11.80
2017-11-22T07:48:13.823Z,11.82
2017-11-22T07:50:46.171Z,11.83
2017-11-22T07:53:16.439Z,11.84
2017-11-22T07:55:48.746Z,11.86
2017-11-22T07:58:22.768Z,11.84
2017-11-22T08:00:51.947Z,11.91
2017-11-22T08:03:22.187Z,11.89
2017-11-22T08:05:52.134Z,11.91
2017-11-22T08:08:21.848Z,11.91
2017-11-22T08:10:51.843Z,11.95
2017-11-22T08:13:21.979Z,11.92
2017-11-22T08:15:51.142Z,11.94
2017-11-22T08:18:20.370Z,11.95
2017-11-22T08:20:50.895Z,11.97
2017-11-22T08:23:20.043Z,11.97
2017-11-22T08:25:49.307Z,11.98
2017-11-22T08:28:20.143Z,11.97
2017-11-22T08:30:49.290Z,11.97
2017-11-22T08:33:18.411Z,12.02
2017-11-22T08:35:47.690Z,12.01
2017-11-22T08:38:16.802Z,12.03
2017-11-22T08:40:45.903Z,12.03
2017-11-22T08:43:20.613Z,12.01
2017-11-22T08:45:50.500Z,12.03
2017-11-22T08:48:20.336Z,12.04
2017-11-22T08:50:49.535Z,12.01
2017-11-22T08:53:18.760Z,12.03
2017-11-22T08:55:54.461Z,12.00
2017-11-22T08:58:26.639Z,12.01
2017-11-22T09:00:57.235Z,12.06
2017-11-22T09:03:27.584Z,12.01
2017-11-22T09:06:02.693Z,12.07
2017-11-22T09:08:31.835Z,12.11
2017-11-22T09:11:00.953Z,12.13
2017-11-22T09:13:30.980Z,12.11
2017-11-22T09:16:00.103Z,12.13
2017-11-22T09:18:38.676Z,12.12
2017-11-22T09:21:09.694Z,12.15
2017-11-22T09:23:38.828Z,12.16
2017-11-22T09:26:08.650Z,12.19
2017-11-22T09:28:38.512Z,12.19
2017-11-22T09:31:13.859Z,12.23
2017-11-22T09:33:44.804Z,12.19
2017-11-22T09:36:18.094Z,12.20
2017-11-22T09:38:47.498Z,12.23
2017-11-22T09:41:17.922Z,12.23
2017-11-22T09:43:47.015Z,12.25
2017-11-22T09:46:16.127Z,12.23
2017-11-22T09:48:45.353Z,12.27
2017-11-22T09:51:16.451Z,12.28
2017-11-22T09:53:45.588Z,12.28
2017-11-22T09:56:14.770Z,12.29
2017-11-22T09:58:43.941Z,12.30
2017-11-22T10:01:13.112Z,12.31
2017-11-22T10:03:42.667Z,12.32
2017-11-22T10:06:11.767Z,12.32
2017-11-22T10:08:40.882Z,12.34
2017-11-22T10:11:10.051Z,12.33
2017-11-22T10:13:39.145Z,12.31
2017-11-22T10:16:08.248Z,12.32
2017-11-22T10:18:37.497Z,12.31
2017-11-22T10:21:06.653Z,12.31
2017-11-22T10:23:36.573Z,12.30
2017-11-22T10:26:06.788Z,12.31
2017-11-22T10:28:35.928Z,12.31
2017-11-22T10:31:07.072Z,12.31
2017-11-22T10:33:37.811Z,12.28
2017-11-22T10:36:07.828Z,12.26
2017-11-22T10:38:37.236Z,12.23
2017-11-22T10:41:10.585Z,12.23
2017-11-22T10:43:39.787Z,12.26
2017-11-22T10:46:08.956Z,12.26
2017-11-22T10:48:38.156Z,12.24
2017-11-22T10:51:07.580Z,12.25
2017-11-22T10:53:36.686Z,12.25
2017-11-22T10:56:05.885Z,12.27
2017-11-22T10:58:35.789Z,12.25
2017-11-22T11:01:04.910Z,12.25
2017-11-22T11:03:34.107Z,12.22
2017-11-22T11:06:03.261Z,12.20
2017-11-22T11:08:32.396Z,12.23
2017-11-22T11:11:02.309Z,12.25
2017-11-22T11:13:32.632Z,12.26
2017-11-22T11:16:01.758Z,12.20
2017-11-22T11:18:30.881Z,12.18
2017-11-22T11:21:01.599Z,12.17
2017-11-22T11:23:30.699Z,12.18
2017-11-22T11:25:59.837Z,12.19
2017-11-22T11:28:29.353Z,12.20
2017-11-22T11:30:59.557Z,12.19
2017-11-22T11:33:28.754Z,12.18
2017-11-22T11:36:15.605Z,12.19
2017-11-22T11:38:45.472Z,12.19
2017-11-22T11:41:14.778Z,12.21
2017-11-22T11:43:45.097Z,12.20
2017-11-22T11:46:14.192Z,12.24
2017-11-22T11:48:43.319Z,12.22
2017-11-22T11:51:13.785Z,12.15
2017-11-22T11:53:42.925Z,12.13
2017-11-22T11:56:12.055Z,12.19
2017-11-22T11:58:41.478Z,12.13
2017-11-22T12:01:10.676Z,12.16
2017-11-22T12:03:39.774Z,12.14
2017-11-22T12:06:08.917Z,12.11
2017-11-22T12:08:38.055Z,12.15
2017-11-22T12:11:07.960Z,12.11
2017-11-22T12:13:37.207Z,12.13
2017-11-22T12:16:07.253Z,12.12
2017-11-22T12:18:36.369Z,12.08
2017-11-22T12:21:05.521Z,12.11
2017-11-22T12:23:36.664Z,12.11
2017-11-22T12:26:05.803Z,12.12
2017-11-22T12:28:35.745Z,12.11
2017-11-22T12:31:04.876Z,12.11
2017-11-22T12:33:34.897Z,12.12
2017-11-22T12:36:04.089Z,12.08
2017-11-22T12:38:34.386Z,12.06
2017-11-22T12:41:03.515Z,12.07
2017-11-22T12:43:32.681Z,12.08
2017-11-22T12:46:01.776Z,12.08
2017-11-22T12:48:30.905Z,12.10
2017-11-22T12:51:00.335Z,12.08
2017-11-22T12:53:29.564Z,12.07
2017-11-22T12:55:59.121Z,12.07
2017-11-22T12:58:28.319Z,12.10
2017-11-22T13:00:57.509Z,12.09
2017-11-22T13:03:26.705Z,12.09
2017-11-22T13:05:56.243Z,12.09
2017-11-22T13:08:26.180Z,12.12
2017-11-22T13:10:58.276Z,12.10
2017-11-22T13:13:27.472Z,12.08
2017-11-22T13:15:58.100Z,12.09
2017-11-22T13:18:27.708Z,12.09
2017-11-22T13:20:56.961Z,12.10
2017-11-22T13:23:26.436Z,12.14
2017-11-22T13:25:56.403Z,12.11
2017-11-22T13:28:25.626Z,12.13
2017-11-22T13:30:55.799Z,12.13
2017-11-22T13:33:25.534Z,12.15
2017-11-22T13:35:54.787Z,12.13
2017-11-22T13:38:24.168Z,12.12
2017-11-22T13:40:53.558Z,12.13
2017-11-22T13:43:22.813Z,12.13
2017-11-22T13:45:52.844Z,12.14
2017-11-22T13:48:23.360Z,12.14
2017-11-22T13:50:52.579Z,12.13
2017-11-22T13:53:22.677Z,12.19
2017-11-22T13:55:53.124Z,12.23
2017-11-22T13:58:22.335Z,12.25
2017-11-22T14:00:51.506Z,12.26
2017-11-22T14:03:21.525Z,12.25
2017-11-22T14:05:50.840Z,12.27
2017-11-22T14:08:20.827Z,12.28
2017-11-22T14:10:51.590Z,12.31
2017-11-22T14:13:21.124Z,12.29
2017-11-22T14:15:51.082Z,12.26
2017-11-22T14:18:20.441Z,12.29
2017-11-22T14:20:49.781Z,12.31
2017-11-22T14:23:19.185Z,12.31
2017-11-22T14:25:49.225Z,12.28
2017-11-22T14:28:19.934Z,12.25
2017-11-22T14:30:49.139Z,12.31
2017-11-22T14:33:18.893Z,12.30
2017-11-22T14:35:49.013Z,12.29
2017-11-22T14:38:18.228Z,12.30
2017-11-22T14:40:47.797Z,12.27
2017-11-22T14:43:16.909Z,12.27
2017-11-22T14:45:46.104Z,12.26
2017-11-22T14:48:15.334Z,12.24
2017-11-22T14:50:44.468Z,12.23
2017-11-22T14:53:13.556Z,12.25
2017-11-22T14:55:42.784Z,12.26
2017-11-22T14:58:11.949Z,12.29
2017-11-22T15:00:41.216Z,12.28
2017-11-22T15:03:10.445Z,12.30
2017-11-22T15:05:39.647Z,12.27
2017-11-22T15:08:09.591Z,12.27
2017-11-22T15:10:38.835Z,12.21
2017-11-22T15:13:08.050Z,12.23
2017-11-22T15:15:37.231Z,12.23
2017-11-22T15:18:07.378Z,12.20
2017-11-22T15:20:36.602Z,12.19
2017-11-22T15:23:05.777Z,12.20
2017-11-22T15:25:36.237Z,12.17
2017-11-22T15:28:06.197Z,12.17
2017-11-22T15:30:35.654Z,12.19
2017-11-22T15:33:04.923Z,12.18
2017-11-22T15:35:34.167Z,12.16
2017-11-22T15:38:03.324Z,12.20
2017-11-22T15:40:34.594Z,12.19
2017-11-22T15:43:03.763Z,12.22
2017-11-22T15:45:32.991Z,12.23
2017-11-22T15:48:03.880Z,12.23
2017-11-22T15:50:33.126Z,12.23
2017-11-22T15:53:02.427Z,12.21
2017-11-22T15:55:31.647Z,12.22
2017-11-22T15:58:00.833Z,12.24
2017-11-22T16:00:30.187Z,12.23
2017-11-22T16:02:59.540Z,12.26
2017-11-22T16:05:28.745Z,12.29
2017-11-22T16:07:58.047Z,12.27
2017-11-22T16:10:27.485Z,12.25
2017-11-22T16:12:57.135Z,12.20
2017-11-22T16:15:26.474Z,12.14
2017-11-22T16:17:55.715Z,12.07
2017-11-22T16:20:25.060Z,12.02
2017-11-22T16:22:54.275Z,11.99
2017-11-22T16:25:24.067Z,11.93
2017-11-22T16:27:53.356Z,11.92
2017-11-22T16:30:22.807Z,11.91
2017-11-22T16:32:53.816Z,11.81
2017-11-22T16:35:23.553Z,11.80
2017-11-22T16:37:52.836Z,11.77
2017-11-22T16:40:22.973Z,11.75
2017-11-22T16:42:52.295Z,11.71
2017-11-22T16:45:21.495Z,11.65
2017-11-22T16:47:51.078Z,11.63
2017-11-22T16:50:20.423Z,11.60
2017-11-22T16:52:49.754Z,11.51
2017-11-22T16:55:19.769Z,11.47
2017-11-22T16:57:49.954Z,11.46
2017-11-22T17:00:19.237Z,11.43
2017-11-22T17:02:48.732Z,11.37
2017-11-22T17:05:18.357Z,11.39
2017-11-22T17:07:47.579Z,11.36
2017-11-22T17:10:16.782Z,11.32
2017-11-22T17:12:45.904Z,11.29
2017-11-22T17:15:15.046Z,11.25
2017-11-22T17:17:45.226Z,11.20
2017-11-22T17:20:14.357Z,11.18
2017-11-22T17:22:43.509Z,11.17
2017-11-22T17:25:14.496Z,11.11
2017-11-22T17:27:43.640Z,11.10
2017-11-22T17:30:12.959Z,11.08
2017-11-22T17:32:43.423Z,11.05
2017-11-22T17:35:13.394Z,10.99
2017-11-22T17:37:42.577Z,10.97
2017-11-22T17:40:12.524Z,10.97
2017-11-22T17:42:42.621Z,10.93
2017-11-22T17:45:13.555Z,10.91
2017-11-22T17:47:42.885Z,10.90
2017-11-22T17:50:12.071Z,10.87
2017-11-22T17:52:41.235Z,10.85
2017-11-22T17:55:10.553Z,10.83
2017-11-22T17:57:50.967Z,10.77
2017-11-22T18:00:20.437Z,10.77
2017-11-22T18:02:51.054Z,10.77
2017-11-22T18:05:20.472Z,10.75
2017-11-22T18:07:50.410Z,10.75
2017-11-22T18:10:20.394Z,10.74
2017-11-22T18:12:57.732Z,10.69
2017-11-22T18:15:28.131Z,10.71
2017-11-22T18:17:57.528Z,10.71
2017-11-22T18:20:27.319Z,10.69
2017-11-22T18:22:58.191Z,10.68
2017-11-22T18:25:28.483Z,10.66
2017-11-22T18:27:57.758Z,10.66
2017-11-22T18:30:27.083Z,10.68
2017-11-22T18:32:57.373Z,10.64
2017-11-22T18:35:27.139Z,10.66
2017-11-22T18:37:56.449Z,10.66
2017-11-22T18:40:26.158Z,10.64
2017-11-22T18:42:55.544Z,10.65
2017-11-22T18:45:26.065Z,10.66
2017-11-22T18:47:55.500Z,10.67
2017-11-22T18:50:24.959Z,10.65
2017-11-22T18:52:54.252Z,10.66
2017-11-22T18:55:24.148Z,10.68
2017-11-22T18:57:53.756Z,10.67
2017-11-22T19:00:22.994Z,10.67
2017-11-22T19:02:53.303Z,10.66
2017-11-22T19:05:22.629Z,10.64
2017-11-22T19:07:51.930Z,10.63
2017-11-22T19:10:21.579Z,10.63
2017-11-22T19:12:51.267Z,10.64
2017-11-22T19:15:23.390Z,10.66
2017-11-22T19:17:53.338Z,10.66
2017-11-22T19:20:23.630Z,10.68
2017-11-22T19:22:53.006Z,10.67
2017-11-22T19:25:22.339Z,10.68
2017-11-22T19:27:51.688Z,10.68
2017-11-22T19:30:21.806Z,10.64
2017-11-22T19:32:51.218Z,10.65
2017-11-22T19:35:20.807Z,10.67
2017-11-22T19:37:51.752Z,10.66
2017-11-22T19:40:22.090Z,10.64
2017-11-22T19:42:52.301Z,10.62
2017-11-22T19:45:22.465Z,10.62
2017-11-22T19:47:53.568Z,10.60
2017-11-22T19:50:22.733Z,10.57
2017-11-22T19:52:52.238Z,10.55
2017-11-22T19:55:22.087Z,10.53
2017-11-22T19:57:51.578Z,10.52
2017-11-22T20:00:21.113Z,10.48
2017-11-22T20:02:51.337Z,10.48
2017-11-22T20:05:20.561Z,10.49
2017-11-22T20:07:50.065Z,10.48
2017-11-22T20:10:20.553Z,10.48
2017-11-22T20:12:50.232Z,10.48
2017-11-22T20:15:20.391Z,10.46
2017-11-22T20:17:49.700Z,10.47
2017-11-22T20:20:18.910Z,10.44
2017-11-22T20:22:48.193Z,10.47
2017-11-22T20:25:17.399Z,10.43
2017-11-22T20:27:46.570Z,10.47
2017-11-22T20:30:15.777Z,10.44
2017-11-22T20:32:45.790Z,10.42
2017-11-22T20:35:16.121Z,10.43
2017-11-22T20:37:45.257Z,10.40
2017-11-22T20:40:15.337Z,10.41
2017-11-22T20:42:44.974Z,10.43
2017-11-22T20:45:14.154Z,10.43
2017-11-22T20:47:44.206Z,10.45
2017-11-22T20:50:13.876Z,10.47
2017-11-22T20:52:43.797Z,10.47
2017-11-22T20:55:13.129Z,10.47
2017-11-22T20:57:42.264Z,10.49
2017-11-22T21:00:11.444Z,10.48
2017-11-22T21:02:41.381Z,10.49
2017-11-22T21:05:10.513Z,10.52
2017-11-22T21:07:42.600Z,10.51
2017-11-22T21:10:18.967Z,10.51
2017-11-22T21:12:48.274Z,10.52
2017-11-22T21:15:17.401Z,10.53
2017-11-22T21:17:47.645Z,10.54
2017-11-22T21:20:17.503Z,10.54
2017-11-22T21:22:46.670Z,10.57
2017-11-22T21:25:15.840Z,10.62
2017-11-22T21:27:45.124Z,10.67
2017-11-22T21:30:14.256Z,10.69
2017-11-22T21:32:44.271Z,10.71
2017-11-22T21:35:13.475Z,10.73
2017-11-22T21:37:42.614Z,10.75
2017-11-22T21:40:12.527Z,10.77
2017-11-22T21:42:43.387Z,10.78
2017-11-22T21:45:12.508Z,10.80
2017-11-22T21:47:42.558Z,10.84
2017-11-22T21:50:12.552Z,10.87
2017-11-22T21:52:41.728Z,10.86
2017-11-22T21:55:10.840Z,10.91
2017-11-22T21:57:40.418Z,10.91
2017-11-22T22:00:09.577Z,10.89
2017-11-22T22:02:38.738Z,10.93
2017-11-22T22:05:08.731Z,10.92
2017-11-22T22:07:39.137Z,10.91
2017-11-22T22:10:08.476Z,10.90
2017-11-22T22:12:37.680Z,10.88
2017-11-22T22:15:06.895Z,10.90
2017-11-22T22:17:36.274Z,10.89
2017-11-22T22:20:05.428Z,10.86
2017-11-22T22:22:35.728Z,10.84
2017-11-22T22:25:07.119Z,10.81
2017-11-22T22:27:36.249Z,10.78
2017-11-22T22:30:05.538Z,10.73
2017-11-22T22:32:36.500Z,10.72
2017-11-22T22:35:05.614Z,10.71
2017-11-22T22:37:35.740Z,10.69
2017-11-22T22:40:04.958Z,10.67
2017-11-22T22:42:34.105Z,10.66
2017-11-22T22:45:04.127Z,10.64
2017-11-22T22:47:33.370Z,10.61
2017-11-22T22:50:03.326Z,10.60
2017-11-22T22:52:33.461Z,10.58
2017-11-22T22:55:02.791Z,10.61
2017-11-22T22:57:31.930Z,10.57
2017-11-22T23:00:01.992Z,10.57
2017-11-22T23:02:31.239Z,10.59
2017-11-22T23:05:01.182Z,10.57
2017-11-22T23:07:31.077Z,10.57
2017-11-22T23:10:00.384Z,10.60
2017-11-22T23:12:29.680Z,10.61
2017-11-22T23:14:58.895Z,10.62
2017-11-22T23:17:29.718Z,10.65
2017-11-22T23:19:59.831Z,10.70
2017-11-22T23:22:29.113Z,10.72
2017-11-22T23:24:59.269Z,10.73
2017-11-22T23:27:29.394Z,10.71
2017-11-22T23:29:59.143Z,10.75
2017-11-22T23:32:31.390Z,10.69
2017-11-22T23:35:00.484Z,10.69
2017-11-22T23:37:29.781Z,10.69
2017-11-22T23:39:59.801Z,10.67
2017-11-22T23:42:28.970Z,10.67
2017-11-22T23:44:58.172Z,10.66
2017-11-22T23:47:27.467Z,10.64
2017-11-22T23:49:56.625Z,10.64
2017-11-22T23:52:25.856Z,10.61
2017-11-22T23:54:55.591Z,10.63
2017-11-22T23:57:24.789Z,10.61
2017-11-22T23:59:53.986Z,10.59
